Time;durP1;ratioP1;P1;durP2;ratioP2;P2;SDS_P1;SDS_P2;PMS_P1;PMS_P2;Temp;Humidity;BMP_temperature;BMP_pressure;BME280_temperature;BME280_humidity;BME280_pressure;Samples;Min_cycle;Max_cycle;Signal;HPM_P1;HPM_P2
2021/05/04 00:01:23;;;;;;;1.75;1.05;;;20.80;39.60;;;;;;5033994;28;20030;-36
2021/05/04 00:03:49;;;;;;;3.05;1.15;;;20.80;39.60;;;;;;5035029;28;20033;-36
2021/05/04 00:06:14;;;;;;;2.47;1.20;;;20.80;39.60;;;;;;5034397;28;20033;-36
2021/05/04 00:08:40;;;;;;;2.50;1.30;;;20.80;39.60;;;;;;5034697;28;20375;-36
2021/05/04 00:11:05;;;;;;;2.80;1.20;;;20.80;39.50;;;;;;5034535;28;20053;-36
2021/05/04 00:13:31;;;;;;;2.60;1.30;;;20.80;39.50;;;;;;5034018;28;20674;-36
2021/05/04 00:15:57;;;;;;;5.07;1.75;;;20.80;39.60;;;;;;5034571;28;20052;-36
2021/05/04 00:18:22;;;;;;;2.60;1.20;;;20.80;39.50;;;;;;5033862;28;20038;-36
2021/05/04 00:20:48;;;;;;;1.50;1.20;;;20.80;39.50;;;;;;5034690;28;20029;-36
2021/05/04 00:23:14;;;;;;;2.05;1.83;;;20.80;40.10;;;;;;5033860;28;20029;-37
2021/05/04 00:25:39;;;;;;;2.15;1.15;;;20.80;39.50;;;;;;5034568;28;20032;-36
2021/05/04 00:28:05;;;;;;;2.83;1.52;;;20.80;39.50;;;;;;5032899;28;20088;-36
2021/05/04 00:30:31;;;;;;;4.72;1.40;;;20.80;39.60;;;;;;5033244;28;20084;-47
2021/05/04 00:32:56;;;;;;;2.05;1.02;;;20.80;39.50;;;;;;5034223;28;20029;-36
2021/05/04 00:35:22;;;;;;;1.65;1.00;;;20.80;39.50;;;;;;5032383;28;20032;-36
2021/05/04 00:37:48;;;;;;;1.48;1.10;;;20.80;39.50;;;;;;5034032;28;20068;-36
2021/05/04 00:40:14;;;;;;;1.77;1.15;;;20.80;39.50;;;;;;5033443;28;20029;-50
2021/05/04 00:42:40;;;;;;;1.80;1.13;;;20.80;39.50;;;;;;5032891;28;20032;-36
2021/05/04 00:45:06;;;;;;;3.03;1.92;;;20.80;39.50;;;;;;5034254;28;20386;-36
2021/05/04 00:47:32;;;;;;;2.42;1.23;;;20.80;39.50;;;;;;5033583;28;20068;-35
2021/05/04 00:49:57;;;;;;;2.55;0.90;;;20.80;39.50;;;;;;5032939;28;20053;-36
2021/05/04 00:52:24;;;;;;;1.92;1.33;;;20.80;39.50;;;;;;5031707;28;20029;-48
2021/05/04 00:54:50;;;;;;;2.55;1.80;;;20.80;39.60;;;;;;5032044;28;20071;-36
2021/05/04 00:57:16;;;;;;;1.88;0.98;;;20.80;39.90;;;;;;5064842;28;20168;-36
2021/05/04 00:59:44;;;;;;;1.75;1.20;;;20.80;39.50;;;;;;5065825;28;20550;-36
2021/05/04 01:02:10;;;;;;;2.08;1.25;;;20.80;39.50;;;;;;5033997;28;20028;-36
2021/05/04 01:04:39;;;;;;;1.73;1.13;;;20.90;39.60;;;;;;5032925;28;20087;-36
2021/05/04 01:07:05;;;;;;;1.98;1.20;;;20.80;39.50;;;;;;5033645;28;20478;-35
2021/05/04 01:09:31;;;;;;;2.45;1.52;;;20.80;39.60;;;;;;5032931;28;20121;-36
2021/05/04 01:11:56;;;;;;;2.13;1.17;;;20.80;39.50;;;;;;5033685;28;20351;-36
2021/05/04 01:14:23;;;;;;;2.03;0.95;;;20.80;39.50;;;;;;5031595;28;20462;-36
2021/05/04 01:16:49;;;;;;;1.30;1.13;;;20.80;39.50;;;;;;5033421;28;20084;-35
2021/05/04 01:19:18;;;;;;;2.50;1.15;;;20.80;39.60;;;;;;5032477;28;20041;-42
2021/05/04 01:21:44;;;;;;;1.30;0.90;;;20.80;39.50;;;;;;5032373;28;20113;-35
2021/05/04 01:24:11;;;;;;;3.00;1.00;;;20.80;39.50;;;;;;5065345;28;20030;-49
2021/05/04 01:26:41;;;;;;;2.15;1.42;;;20.80;39.60;;;;;;5031887;28;20032;-35
2021/05/04 01:29:07;;;;;;;1.52;1.13;;;20.80;39.50;;;;;;5032901;28;20157;-36
2021/05/04 01:31:33;;;;;;;1.98;0.90;;;20.80;39.50;;;;;;5032417;28;20096;-36
2021/05/04 01:33:58;;;;;;;1.27;1.10;;;20.80;39.50;;;;;;5065448;28;20455;-36
2021/05/04 01:36:25;;;;;;;3.08;1.55;;;20.80;39.50;;;;;;5032294;28;20108;-36
2021/05/04 01:38:51;;;;;;;3.70;0.95;;;20.80;39.60;;;;;;5031946;28;20091;-36
2021/05/04 01:41:17;;;;;;;3.47;1.45;;;20.80;39.60;;;;;;5031940;28;20027;-36
2021/05/04 01:43:43;;;;;;;2.28;1.02;;;20.80;39.60;;;;;;5032161;28;20385;-36
2021/05/04 01:46:08;;;;;;;1.13;1.00;;;20.80;39.50;;;;;;5031590;28;20386;-36
2021/05/04 01:48:35;;;;;;;1.38;1.15;;;20.80;39.50;;;;;;5027913;28;20037;-36
2021/05/04 01:51:00;;;;;;;2.95;1.50;;;20.80;39.50;;;;;;5031494;28;20034;-36
2021/05/04 01:53:26;;;;;;;1.60;1.02;;;20.80;39.50;;;;;;5031976;28;20036;-36
2021/05/04 01:55:52;;;;;;;1.50;1.30;;;20.80;39.50;;;;;;5032865;28;20033;-36
2021/05/04 01:58:18;;;;;;;1.73;1.10;;;20.80;39.60;;;;;;5031466;28;20398;-36
2021/05/04 02:00:44;;;;;;;2.50;1.00;;;20.80;39.50;;;;;;5014792;28;20029;-36
2021/05/04 02:03:09;;;;;;;1.83;1.15;;;20.80;39.50;;;;;;5032716;28;20108;-35
2021/05/04 02:05:35;;;;;;;1.27;0.90;;;20.80;39.50;;;;;;5032204;28;20128;-36
2021/05/04 02:08:01;;;;;;;3.03;1.00;;;20.80;39.60;;;;;;5031486;28;20036;-36
2021/05/04 02:10:26;;;;;;;1.77;1.05;;;20.80;39.50;;;;;;5030511;28;20060;-36
2021/05/04 02:12:52;;;;;;;1.17;0.85;;;20.80;39.50;;;;;;5031127;28;20029;-37
2021/05/04 02:15:18;;;;;;;3.40;1.20;;;20.80;39.50;;;;;;5030393;28;20416;-38
2021/05/04 02:17:44;;;;;;;1.60;0.90;;;20.80;39.50;;;;;;5031283;28;20033;-36
2021/05/04 02:20:11;;;;;;;2.80;0.90;;;20.80;39.40;;;;;;5032380;28;20362;-35
2021/05/04 02:22:36;;;;;;;2.50;1.10;;;20.80;39.50;;;;;;5031477;28;20505;-36
2021/05/04 02:25:04;;;;;;;3.47;1.20;;;20.80;39.50;;;;;;5032089;28;20029;-39
2021/05/04 02:27:30;;;;;;;1.23;1.00;;;20.80;39.50;;;;;;5030298;28;20044;-36
2021/05/04 02:29:55;;;;;;;2.75;1.25;;;20.80;39.50;;;;;;5032537;28;20439;-36
2021/05/04 02:32:22;;;;;;;1.90;0.88;;;20.80;39.50;;;;;;5031349;28;20453;-36
2021/05/04 02:34:47;;;;;;;1.60;1.17;;;20.90;39.60;;;;;;5032377;28;20029;-36
2021/05/04 02:37:14;;;;;;;1.35;1.15;;;20.80;39.50;;;;;;5030722;28;20033;-47
2021/05/04 02:39:40;;;;;;;1.27;1.10;;;20.80;39.50;;;;;;5031585;28;20037;-36
2021/05/04 02:42:06;;;;;;;2.03;0.95;;;20.80;39.50;;;;;;5027123;28;20032;-37
2021/05/04 02:44:32;;;;;;;1.85;1.20;;;20.90;39.50;;;;;;5011779;28;20040;-36
2021/05/04 02:46:58;;;;;;;1.35;1.10;;;20.80;39.50;;;;;;5029097;28;20052;-36
2021/05/04 02:49:24;;;;;;;1.85;1.00;;;20.90;39.60;;;;;;5028118;28;20524;-36
2021/05/04 02:51:50;;;;;;;1.20;1.00;;;20.90;39.60;;;;;;5012598;28;20029;-36
2021/05/04 02:54:15;;;;;;;2.33;1.00;;;20.90;39.60;;;;;;5029579;28;20434;-51
2021/05/04 02:56:41;;;;;;;1.15;1.02;;;20.90;39.60;;;;;;5028867;28;20386;-36
2021/05/04 02:59:07;;;;;;;1.30;0.98;;;20.90;39.60;;;;;;5029507;28;20532;-36
2021/05/04 03:01:32;;;;;;;1.75;0.82;;;20.90;39.60;;;;;;5028035;28;20206;-36
2021/05/04 03:03:58;;;;;;;1.42;0.95;;;20.80;39.50;;;;;;5030249;28;20125;-36
2021/05/04 03:06:24;;;;;;;1.10;1.00;;;20.80;39.50;;;;;;5029147;28;20052;-36
2021/05/04 03:08:49;;;;;;;0.88;0.70;;;20.90;39.60;;;;;;5029960;28;20462;-36
2021/05/04 03:11:15;;;;;;;1.33;0.82;;;20.90;39.60;;;;;;5029652;28;21361;-49
2021/05/04 03:13:41;;;;;;;1.67;1.10;;;20.90;39.60;;;;;;5028613;28;20458;-36
2021/05/04 03:16:07;;;;;;;2.33;1.00;;;20.90;39.50;;;;;;5029833;28;20438;-36
2021/05/04 03:18:33;;;;;;;1.45;1.13;;;20.90;39.60;;;;;;5029302;28;20072;-40
2021/05/04 03:20:59;;;;;;;2.20;1.23;;;20.90;39.60;;;;;;5028688;28;20385;-36
2021/05/04 03:23:24;;;;;;;1.00;0.70;;;20.90;39.60;;;;;;5029216;28;20422;-37
2021/05/04 03:25:51;;;;;;;1.23;0.80;;;20.90;39.60;;;;;;5029959;28;20022;-36
2021/05/04 03:28:18;;;;;;;1.48;0.88;;;20.90;39.60;;;;;;5028039;28;20044;-46
2021/05/04 03:30:43;;;;;;;1.55;0.80;;;20.90;39.60;;;;;;5029737;28;20034;-37
2021/05/04 03:33:10;;;;;;;2.65;1.25;;;20.90;39.60;;;;;;5029956;28;20037;-36
2021/05/04 03:35:36;;;;;;;0.95;0.80;;;20.90;39.50;;;;;;5026805;28;20029;-36
2021/05/04 03:38:03;;;;;;;1.63;0.80;;;20.90;39.50;;;;;;5028439;28;20029;-36
2021/05/04 03:40:29;;;;;;;3.33;1.17;;;20.90;39.50;;;;;;5027775;28;20083;-36
2021/05/04 03:42:54;;;;;;;1.20;0.95;;;20.90;39.50;;;;;;5029513;28;20040;-36
2021/05/04 03:45:20;;;;;;;1.50;1.10;;;20.90;39.50;;;;;;5028862;28;20383;-36
2021/05/04 03:47:46;;;;;;;1.58;1.00;;;20.90;39.50;;;;;;5029912;28;20028;-36
2021/05/04 03:50:18;;;;;;;1.08;0.90;;;20.90;39.50;;;;;;5028535;28;20026;-38
2021/05/04 03:52:44;;;;;;;1.52;1.02;;;20.90;39.50;;;;;;5029708;28;20041;-37
2021/05/04 03:55:10;;;;;;;1.50;1.10;;;20.90;39.60;;;;;;5030024;28;20025;-36
2021/05/04 03:57:36;;;;;;;1.67;0.85;;;20.90;39.50;;;;;;5012135;28;20052;-36
2021/05/04 04:00:04;;;;;;;1.25;0.82;;;20.90;39.50;;;;;;5031591;28;20032;-36
2021/05/04 04:02:30;;;;;;;0.90;0.73;;;20.90;39.50;;;;;;5030196;28;20029;-35
2021/05/04 04:04:55;;;;;;;1.38;1.13;;;20.90;39.50;;;;;;5031291;28;20117;-36
2021/05/04 04:07:21;;;;;;;1.85;0.90;;;20.90;39.50;;;;;;5033911;28;20061;-36
2021/05/04 04:09:47;;;;;;;1.92;0.80;;;20.90;39.50;;;;;;5034890;28;20481;-36
2021/05/04 04:12:13;;;;;;;2.80;1.27;;;20.90;39.50;;;;;;5033538;28;20030;-49
2021/05/04 04:14:39;;;;;;;2.08;0.93;;;20.90;39.40;;;;;;5034086;28;20036;-36
2021/05/04 04:17:04;;;;;;;2.25;1.00;;;20.90;39.50;;;;;;5034679;28;20037;-36
2021/05/04 04:19:30;;;;;;;1.33;1.00;;;20.90;39.40;;;;;;5032762;28;20025;-36
2021/05/04 04:21:55;;;;;;;1.08;0.82;;;20.90;39.40;;;;;;5033257;28;20030;-36
2021/05/04 04:24:21;;;;;;;1.70;0.88;;;20.90;39.40;;;;;;5033805;28;20108;-36
2021/05/04 04:26:47;;;;;;;1.45;0.90;;;20.90;39.50;;;;;;5033418;28;20112;-36
2021/05/04 04:29:14;;;;;;;1.13;0.80;;;20.90;39.40;;;;;;5031725;28;20045;-38
2021/05/04 04:31:41;;;;;;;1.70;0.93;;;20.90;39.40;;;;;;5028753;28;20036;-36
2021/05/04 04:34:07;;;;;;;1.15;0.85;;;20.90;39.40;;;;;;5033223;28;20025;-36
2021/05/04 04:36:32;;;;;;;1.38;0.90;;;20.90;39.40;;;;;;5033478;28;20048;-36
2021/05/04 04:38:58;;;;;;;1.10;0.93;;;20.90;39.50;;;;;;5034365;28;20029;-36
2021/05/04 04:41:24;;;;;;;0.90;0.75;;;20.90;39.40;;;;;;5032269;28;20064;-36
2021/05/04 04:43:49;;;;;;;1.35;0.80;;;20.90;39.40;;;;;;5066203;28;20463;-36
2021/05/04 04:46:16;;;;;;;1.70;0.93;;;20.90;39.40;;;;;;5033531;28;20022;-50
2021/05/04 04:48:42;;;;;;;1.35;0.88;;;20.90;40.10;;;;;;5032828;28;20117;-35
2021/05/04 04:51:08;;;;;;;1.52;0.98;;;20.90;39.40;;;;;;5034266;28;20108;-35
2021/05/04 04:53:33;;;;;;;1.42;1.02;;;20.90;39.40;;;;;;5033646;28;20967;-36
2021/05/04 04:55:59;;;;;;;2.15;0.75;;;20.90;39.50;;;;;;5032814;28;20026;-36
2021/05/04 04:58:25;;;;;;;1.45;1.05;;;20.90;39.40;;;;;;5032982;28;20077;-36
2021/05/04 05:00:50;;;;;;;2.22;0.88;;;20.90;39.40;;;;;;5034203;28;20078;-35
2021/05/04 05:03:16;;;;;;;1.42;1.00;;;20.90;39.40;;;;;;5033522;28;20429;-49
2021/05/04 05:05:42;;;;;;;3.63;1.35;;;20.90;39.40;;;;;;5032314;28;20108;-36
2021/05/04 05:08:09;;;;;;;2.35;0.70;;;20.90;39.40;;;;;;5032191;28;20060;-36
2021/05/04 05:10:34;;;;;;;1.50;0.85;;;20.90;39.40;;;;;;5032902;28;20498;-36
2021/05/04 05:13:00;;;;;;;1.50;1.02;;;20.90;39.40;;;;;;5033829;28;20029;-36
2021/05/04 05:15:27;;;;;;;1.77;1.02;;;20.90;39.40;;;;;;5033116;28;20028;-36
2021/05/04 05:17:53;;;;;;;2.15;0.98;;;20.90;39.40;;;;;;5033265;28;20061;-47
2021/05/04 05:20:19;;;;;;;2.15;0.90;;;20.90;39.40;;;;;;5033115;28;20552;-48
2021/05/04 05:22:45;;;;;;;2.60;0.95;;;20.90;39.50;;;;;;5033432;28;20469;-36
2021/05/04 05:25:12;;;;;;;1.40;0.75;;;20.90;39.40;;;;;;5027162;28;20029;-36
2021/05/04 05:27:38;;;;;;;1.08;0.70;;;20.90;39.50;;;;;;5064403;28;20057;-36
2021/05/04 05:30:08;;;;;;;1.55;0.90;;;20.90;39.50;;;;;;5033057;28;20068;-36
2021/05/04 05:32:34;;;;;;;0.95;0.85;;;20.90;39.50;;;;;;5064400;28;20132;-38
2021/05/04 05:35:00;;;;;;;1.42;0.80;;;21.00;39.60;;;;;;5065239;28;20442;-35
2021/05/04 05:37:26;;;;;;;1.52;0.90;;;20.90;39.60;;;;;;5064524;28;20022;-35
2021/05/04 05:39:52;;;;;;;1.63;1.10;;;20.90;39.90;;;;;;5065185;28;20075;-36
2021/05/04 05:42:18;;;;;;;1.20;0.80;;;21.00;40.00;;;;;;5032546;28;20025;-51
2021/05/04 05:44:44;;;;;;;3.00;0.90;;;20.90;40.10;;;;;;5033119;28;20033;-36
2021/05/04 05:47:10;;;;;;;3.30;0.90;;;21.00;40.40;;;;;;5065103;28;20026;-36
2021/05/04 05:49:37;;;;;;;7.72;1.20;;;21.00;40.70;;;;;;5032092;28;20025;-35
2021/05/04 05:52:02;;;;;;;5.90;1.10;;;21.00;40.80;;;;;;5031321;28;20037;-36
2021/05/04 05:54:30;;;;;;;6.45;0.90;;;21.00;41.00;;;;;;5031952;28;20565;-36
2021/05/04 05:56:56;;;;;;;6.57;1.42;;;21.10;41.20;;;;;;5032630;28;20034;-37
2021/05/04 05:59:22;;;;;;;5.30;0.93;;;21.00;41.20;;;;;;5031725;28;20033;-36
2021/05/04 06:01:47;;;;;;;4.70;1.50;;;21.00;41.20;;;;;;5031571;28;20032;-35
2021/05/04 06:04:13;;;;;;;2.70;1.30;;;21.10;41.30;;;;;;5031262;28;20502;-36
2021/05/04 06:06:39;;;;;;;5.85;1.35;;;21.00;41.30;;;;;;5032038;28;20056;-35
2021/05/04 06:09:05;;;;;;;7.18;2.17;;;21.00;41.30;;;;;;5031291;28;20037;-35
2021/05/04 06:11:31;;;;;;;6.80;1.80;;;21.00;41.40;;;;;;5031674;28;20025;-36
2021/05/04 06:13:56;;;;;;;3.60;1.67;;;20.70;36.00;;;;;;5032630;28;20026;-36
2021/05/04 06:16:23;;;;;;;3.53;1.25;;;19.80;34.40;;;;;;5030546;28;20108;-39
2021/05/04 06:18:50;;;;;;;2.83;1.40;;;19.20;35.60;;;;;;5026449;28;20037;-36
2021/05/04 06:21:15;;;;;;;2.75;1.10;;;18.90;35.10;;;;;;5031502;28;20021;-36
2021/05/04 06:23:41;;;;;;;3.58;1.50;;;18.60;35.30;;;;;;5031417;28;20036;-36
2021/05/04 06:26:07;;;;;;;3.13;1.42;;;18.70;35.60;;;;;;5032065;28;20029;-45
2021/05/04 06:28:33;;;;;;;3.10;1.40;;;18.60;35.60;;;;;;5029869;28;20033;-36
2021/05/04 06:30:59;;;;;;;2.63;1.27;;;18.60;35.70;;;;;;5030130;28;20104;-36
2021/05/04 06:33:26;;;;;;;1.80;1.27;;;18.50;35.70;;;;;;5027777;28;20117;-36
2021/05/04 06:35:52;;;;;;;4.38;1.50;;;18.50;36.00;;;;;;5031643;28;20033;-36
2021/05/04 06:38:18;;;;;;;3.75;1.73;;;18.40;35.60;;;;;;5031905;28;20441;-36
2021/05/04 06:40:46;;;;;;;2.58;1.33;;;18.40;35.50;;;;;;5031597;28;20025;-36
2021/05/04 06:43:13;;;;;;;3.08;1.20;;;18.40;35.70;;;;;;5031988;28;20033;-36
2021/05/04 06:45:39;;;;;;;2.00;1.20;;;18.20;35.80;;;;;;5031166;28;20654;-36
2021/05/04 06:48:06;;;;;;;2.10;1.00;;;18.20;35.80;;;;;;5032214;28;20029;-36
2021/05/04 06:50:31;;;;;;;3.67;1.20;;;18.20;35.60;;;;;;5063050;28;20393;-36
2021/05/04 06:52:57;;;;;;;3.60;1.30;;;18.20;35.40;;;;;;5032432;28;20104;-36
2021/05/04 06:55:23;;;;;;;2.45;1.10;;;18.40;35.50;;;;;;5031283;28;20048;-50
2021/05/04 06:57:50;;;;;;;2.30;1.30;;;18.40;35.00;;;;;;5063674;28;20057;-36
2021/05/04 07:00:20;;;;;;;2.72;1.20;;;18.30;35.00;;;;;;5031229;28;20025;-36
2021/05/04 07:02:46;;;;;;;2.97;1.35;;;18.20;34.90;;;;;;5029987;28;20049;-36
2021/05/04 07:05:18;;;;;;;2.78;0.95;;;18.40;35.00;;;;;;5031544;28;20064;-36
2021/05/04 07:07:44;;;;;;;;;;;18.30;34.60;;;;;;5011932;28;20038;-45
2021/05/04 07:10:10;;;;;;;3.08;1.05;;;18.30;35.00;;;;;;5051024;28;20281;-36
2021/05/04 07:12:36;;;;;;;1.75;1.15;;;18.40;34.80;;;;;;5028186;28;20036;-36
2021/05/04 07:15:01;;;;;;;3.05;1.45;;;18.30;34.90;;;;;;5031599;28;20022;-36
2021/05/04 07:17:27;;;;;;;2.85;1.55;;;18.40;35.00;;;;;;5046526;28;20372;-36
2021/05/04 07:19:55;;;;;;;5.32;1.08;;;18.40;35.40;;;;;;5063354;28;20116;-36
2021/05/04 07:22:23;;;;;;;5.07;1.10;;;18.40;35.50;;;;;;5031478;28;20044;-48
2021/05/04 07:24:49;;;;;;;2.58;1.00;;;18.70;35.80;;;;;;5031633;28;20021;-35
2021/05/04 07:27:15;;;;;;;1.50;1.00;;;19.20;36.30;;;;;;5030535;28;20030;-35
2021/05/04 07:29:40;;;;;;;2.45;1.10;;;19.50;37.10;;;;;;5030485;28;20037;-35
2021/05/04 07:32:06;;;;;;;1.98;0.93;;;19.70;37.50;;;;;;5031414;28;20453;-35
2021/05/04 07:34:35;;;;;;;2.20;1.40;;;19.90;37.30;;;;;;5030671;28;20037;-35
2021/05/04 07:37:00;;;;;;;1.88;1.20;;;19.90;37.50;;;;;;5030550;28;20029;-36
2021/05/04 07:39:27;;;;;;;1.88;0.93;;;20.10;37.60;;;;;;5030727;28;20045;-36
2021/05/04 07:41:53;;;;;;;2.25;1.00;;;20.10;37.50;;;;;;5033632;28;20458;-35
2021/05/04 07:44:21;;;;;;;2.80;0.90;;;20.20;37.70;;;;;;5034554;28;20030;-46
2021/05/04 07:46:46;;;;;;;3.17;1.10;;;20.20;37.70;;;;;;5033399;28;20124;-35
2021/05/04 07:49:18;;;;;;;2.03;1.10;;;20.20;37.80;;;;;;5034925;28;20457;-35
2021/05/04 07:51:44;;;;;;;3.00;1.10;;;20.30;38.00;;;;;;5033053;28;20052;-35
2021/05/04 07:54:10;;;;;;;2.13;1.10;;;20.40;37.90;;;;;;5035242;28;20072;-35
2021/05/04 07:56:35;;;;;;;2.67;1.10;;;20.40;38.60;;;;;;5034042;28;20025;-35
2021/05/04 07:59:01;;;;;;;2.65;0.95;;;20.40;38.00;;;;;;5033099;28;20073;-41
2021/05/04 08:01:27;;;;;;;1.58;0.80;;;20.40;38.00;;;;;;5032995;28;20022;-36
2021/05/04 08:03:52;;;;;;;6.68;1.17;;;20.50;38.20;;;;;;5034756;28;20064;-35
2021/05/04 08:06:18;;;;;;;2.60;0.82;;;20.50;38.20;;;;;;5032249;28;20423;-36
2021/05/04 08:08:44;;;;;;;0.82;0.73;;;20.50;38.20;;;;;;5033309;28;20529;-35
2021/05/04 08:11:09;;;;;;;0.70;0.70;;;20.50;38.20;;;;;;5033921;28;20033;-35
2021/05/04 08:13:36;;;;;;;1.10;0.93;;;20.60;38.20;;;;;;5032482;28;20022;-35
2021/05/04 08:16:05;;;;;;;2.08;0.73;;;20.60;38.20;;;;;;5034525;28;20049;-35
2021/05/04 08:18:32;;;;;;;2.08;1.17;;;20.70;38.30;;;;;;5032055;28;20033;-35
2021/05/04 08:20:58;;;;;;;2.38;0.93;;;20.70;38.20;;;;;;5033184;28;20144;-40
2021/05/04 08:23:26;;;;;;;2.08;0.98;;;20.70;38.20;;;;;;5032849;28;20033;-46
2021/05/04 08:25:53;;;;;;;3.63;0.70;;;20.70;38.20;;;;;;5034597;28;20112;-35
2021/05/04 08:28:19;;;;;;;2.72;0.68;;;20.70;38.10;;;;;;5034584;28;20588;-35
2021/05/04 08:30:45;;;;;;;1.38;0.73;;;20.70;38.10;;;;;;5033587;28;20033;-35
2021/05/04 08:33:11;;;;;;;1.08;0.88;;;20.80;38.20;;;;;;5034370;28;20035;-35
2021/05/04 08:35:37;;;;;;;1.83;0.82;;;20.80;38.10;;;;;;5033423;28;20029;-35
2021/05/04 08:38:03;;;;;;;2.10;1.00;;;20.80;38.10;;;;;;5034228;28;20521;-35
2021/05/04 08:40:29;;;;;;;1.50;0.80;;;20.80;38.10;;;;;;5033460;28;20033;-36
2021/05/04 08:42:55;;;;;;;1.17;0.85;;;20.90;38.10;;;;;;5034108;28;20029;-35
2021/05/04 08:45:21;;;;;;;1.23;0.93;;;20.80;38.10;;;;;;5032409;28;20429;-38
2021/05/04 08:47:51;;;;;;;0.93;0.88;;;20.80;38.00;;;;;;5033260;28;20021;-35
2021/05/04 08:50:21;;;;;;;2.20;1.23;;;20.90;38.10;;;;;;5034163;28;20021;-35
2021/05/04 08:52:48;;;;;;;1.27;0.88;;;20.90;38.10;;;;;;5032736;28;20025;-35
2021/05/04 08:55:16;;;;;;;2.75;0.75;;;20.90;38.10;;;;;;5032693;28;20112;-35
2021/05/04 08:57:42;;;;;;;2.72;0.93;;;20.90;38.10;;;;;;5031569;28;20111;-37
2021/05/04 09:00:11;;;;;;;0.75;0.73;;;20.90;38.10;;;;;;5031531;28;20413;-36
2021/05/04 09:02:56;;;;;;;2.55;0.90;;;21.00;38.10;;;;;;5027992;28;20025;-35
2021/05/04 09:05:22;;;;;;;1.05;0.70;;;21.00;38.80;;;;;;5032740;28;20091;-35
2021/05/04 09:07:48;;;;;;;0.77;0.63;;;21.00;38.20;;;;;;5031642;28;20429;-35
2021/05/04 09:10:40;;;;;;;1.63;0.93;;;21.00;38.20;;;;;;5031752;28;20029;-36
2021/05/04 09:13:35;;;;;;;;;;;21.00;38.20;;;;;;5034477;28;20032;-35
2021/05/04 09:16:25;;;;;;;1.30;0.80;;;21.10;38.20;;;;;;5033152;28;19905;-35
2021/05/04 09:21:34;;;;;;;1.15;1.02;;;21.10;38.30;;;;;;5033184;28;20068;-47
2021/05/04 09:24:18;;;;;;;1.35;0.82;;;21.00;38.20;;;;;;5033131;28;20051;-35
2021/05/04 09:26:45;;;;;;;1.25;0.77;;;21.10;38.30;;;;;;5033377;28;20040;-41
2021/05/04 09:29:11;;;;;;;0.75;0.60;;;21.10;38.40;;;;;;5033675;28;20112;-35
2021/05/04 09:31:38;;;;;;;1.55;0.73;;;21.10;38.30;;;;;;5032557;28;20113;-36
2021/05/04 09:34:22;;;;;;;2.33;0.82;;;21.10;38.30;;;;;;5032946;28;20029;-35
2021/05/04 09:36:52;;;;;;;1.23;0.70;;;21.10;38.30;;;;;;5032441;28;20462;-35
2021/05/04 09:39:27;;;;;;;1.45;1.00;;;21.10;38.40;;;;;;5031780;28;20033;-35
2021/05/04 09:41:54;;;;;;;1.83;0.80;;;21.10;38.40;;;;;;5032175;28;20932;-35
2021/05/04 09:44:40;;;;;;;1.55;0.70;;;21.10;38.50;;;;;;5033113;28;20037;-41
2021/05/04 09:47:07;;;;;;;1.95;0.70;;;21.10;38.40;;;;;;5033001;28;20022;-35
2021/05/04 09:49:37;;;;;;;1.83;0.80;;;21.20;38.50;;;;;;5032321;28;20025;-48
2021/05/04 09:54:52;;;;;;;2.15;0.95;;;21.20;38.50;;;;;;5029186;28;20211;-36
2021/05/04 09:57:34;;;;;;;2.13;0.90;;;21.20;38.50;;;;;;5032280;28;20057;-35
2021/05/04 10:00:00;;;;;;;1.10;0.73;;;21.20;38.50;;;;;;5032794;28;20038;-35
2021/05/04 10:02:26;;;;;;;1.88;1.00;;;21.20;38.50;;;;;;5032135;28;20017;-35
2021/05/04 10:04:52;;;;;;;1.10;0.70;;;21.20;38.50;;;;;;5031314;28;20026;-35
2021/05/04 10:07:23;;;;;;;1.10;0.52;;;21.20;38.50;;;;;;5064505;28;20098;-35
2021/05/04 10:09:49;;;;;;;0.90;0.70;;;21.20;38.60;;;;;;5031690;28;20116;-36
2021/05/04 10:12:20;;;;;;;1.08;0.80;;;21.30;38.60;;;;;;5031266;28;20026;-35
2021/05/04 10:14:47;;;;;;;1.98;1.23;;;21.20;38.60;;;;;;5031641;28;20029;-35
2021/05/04 10:17:16;;;;;;;0.77;0.70;;;21.20;38.60;;;;;;5032182;28;20029;-35
2021/05/04 10:19:42;;;;;;;4.18;0.80;;;21.20;38.60;;;;;;5030064;28;20033;-35
2021/05/04 10:22:10;;;;;;;1.45;1.27;;;21.30;38.80;;;;;;5031107;28;20423;-35
2021/05/04 10:24:38;;;;;;;1.13;0.88;;;21.30;38.70;;;;;;5031534;28;20351;-36
2021/05/04 10:27:05;;;;;;;1.33;0.70;;;21.30;38.70;;;;;;5032015;28;20030;-35
2021/05/04 10:29:32;;;;;;;1.35;0.70;;;21.30;38.80;;;;;;5030800;28;20037;-46
2021/05/04 10:31:59;;;;;;;1.13;0.70;;;21.30;38.80;;;;;;5031896;28;20041;-35
2021/05/04 10:34:26;;;;;;;0.70;0.70;;;21.30;38.80;;;;;;5031926;28;20035;-35
2021/05/04 10:36:53;;;;;;;1.55;0.80;;;21.30;38.80;;;;;;5031429;28;20206;-35
2021/05/04 10:39:36;;;;;;;1.20;0.85;;;21.30;38.80;;;;;;5031963;28;20378;-35
2021/05/04 10:42:05;;;;;;;1.02;0.80;;;21.30;38.70;;;;;;5031804;28;20120;-35
2021/05/04 10:45:03;;;;;;;0.93;0.70;;;21.30;38.80;;;;;;5032070;28;20028;-35
2021/05/04 10:48:00;;;;;;;1.63;0.70;;;21.30;38.80;;;;;;5016829;28;20076;-48
2021/05/04 10:50:47;;;;;;;2.15;0.80;;;21.30;38.80;;;;;;5008064;28;20044;-36
2021/05/04 10:53:15;;;;;;;0.80;0.60;;;21.30;38.90;;;;;;5064464;28;20057;-35
2021/05/04 10:55:53;;;;;;;1.42;0.90;;;21.30;38.90;;;;;;5030629;28;20482;-35
2021/05/04 10:58:19;;;;;;;1.15;0.93;;;21.30;39.10;;;;;;5031397;28;20064;-35
2021/05/04 11:00:58;;;;;;;1.40;0.82;;;21.30;38.90;;;;;;5029785;28;20025;-35
2021/05/04 11:03:33;;;;;;;1.17;0.70;;;21.30;39.00;;;;;;5031783;28;20033;-39
2021/05/04 11:06:03;;;;;;;1.10;0.60;;;21.30;39.10;;;;;;5030044;28;20018;-35
2021/05/04 11:08:41;;;;;;;2.90;0.98;;;21.30;39.30;;;;;;5031855;28;20104;-35
2021/05/04 11:11:47;;;;;;;0.88;0.60;;;21.30;39.70;;;;;;5031721;28;20025;-35
2021/05/04 11:14:15;;;;;;;3.03;0.80;;;21.30;39.70;;;;;;5031582;28;20032;-35
2021/05/04 11:16:47;;;;;;;1.92;0.88;;;21.30;39.70;;;;;;5034878;28;20025;-35
2021/05/04 11:19:29;;;;;;;0.68;0.63;;;21.30;39.80;;;;;;5034398;28;20029;-35
2021/05/04 11:21:58;;;;;;;1.77;0.65;;;21.30;39.80;;;;;;5033689;28;20488;-35
2021/05/04 11:24:29;;;;;;;2.50;1.10;;;21.30;39.90;;;;;;5035736;28;20037;-35
2021/05/04 11:26:56;;;;;;;1.08;0.70;;;21.30;40.00;;;;;;5034868;28;20261;-35
2021/05/04 11:29:43;;;;;;;2.13;1.25;;;21.30;40.10;;;;;;5034262;28;20037;-37
2021/05/04 11:32:18;;;;;;;2.22;1.40;;;21.30;40.20;;;;;;5035284;28;20513;-35
2021/05/04 11:34:49;;;;;;;2.33;1.30;;;21.30;40.40;;;;;;5033355;28;20036;-35
2021/05/04 11:37:24;;;;;;;5.65;1.40;;;21.30;40.40;;;;;;5034225;28;20037;-35
2021/05/04 11:39:52;;;;;;;2.83;1.40;;;21.30;40.40;;;;;;5034613;28;20048;-35
2021/05/04 11:42:20;;;;;;;1.75;1.35;;;21.30;40.40;;;;;;5017471;28;20044;-35
2021/05/04 11:44:45;;;;;;;1.10;0.95;;;21.30;40.50;;;;;;5031505;28;20425;-35
2021/05/04 11:47:25;;;;;;;1.88;0.98;;;21.30;40.30;;;;;;5035202;28;20029;-35
2021/05/04 11:50:05;;;;;;;2.78;1.50;;;21.30;40.40;;;;;;5034108;28;20036;-35
2021/05/04 11:52:31;;;;;;;1.90;1.02;;;21.30;40.40;;;;;;5035002;28;20080;-35
2021/05/04 11:55:15;;;;;;;1.50;0.90;;;21.30;40.30;;;;;;5033110;28;20029;-35
2021/05/04 11:57:42;;;;;;;2.72;0.90;;;21.30;40.30;;;;;;5032267;28;20128;-35
2021/05/04 12:00:17;;;;;;;1.30;1.00;;;21.30;40.30;;;;;;5034733;28;20089;-35
2021/05/04 12:02:45;;;;;;;1.52;0.80;;;21.30;40.30;;;;;;5034381;28;20099;-35
2021/05/04 12:05:11;;;;;;;2.20;1.20;;;21.30;40.30;;;;;;5034966;28;20026;-35
2021/05/04 12:07:38;;;;;;;2.55;1.00;;;21.30;40.30;;;;;;5034117;28;20032;-48
2021/05/04 12:10:19;;;;;;;1.20;1.00;;;21.30;40.30;;;;;;5034775;28;20029;-35
2021/05/04 12:12:53;;;;;;;1.65;1.15;;;21.30;40.20;;;;;;5034292;28;20033;-35
2021/05/04 12:15:24;;;;;;;1.40;0.90;;;21.30;40.30;;;;;;5034751;28;20026;-35
2021/05/04 12:17:56;;;;;;;2.08;1.10;;;21.30;40.30;;;;;;5033686;28;20377;-35
2021/05/04 12:20:23;;;;;;;;;;;21.30;40.40;;;;;;5034952;28;20029;-35
2021/05/04 12:22:51;;;;;;;1.20;1.00;;;21.30;40.30;;;;;;5032731;28;19911;-35
2021/05/04 12:25:24;;;;;;;1.00;0.90;;;21.30;40.30;;;;;;5033245;28;20028;-35
2021/05/04 12:27:50;;;;;;;1.73;1.30;;;21.30;40.20;;;;;;5064897;28;20037;-35
2021/05/04 12:30:22;;;;;;;1.10;0.75;;;21.30;40.20;;;;;;5034292;28;20075;-35
2021/05/04 12:32:49;;;;;;;3.42;1.02;;;21.40;40.20;;;;;;5033457;28;20029;-46
2021/05/04 12:35:34;;;;;;;2.15;0.73;;;21.30;40.20;;;;;;5033217;28;20037;-35
2021/05/04 12:38:21;;;;;;;0.70;0.70;;;21.30;40.20;;;;;;5029249;28;20033;-35
2021/05/04 12:41:25;;;;;;;3.47;1.25;;;21.30;40.30;;;;;;5065674;28;20429;-39
2021/05/04 12:44:21;;;;;;;6.72;1.80;;;21.30;40.60;;;;;;5032619;28;20820;-35
2021/05/04 12:46:48;;;;;;;7.80;1.70;;;21.30;40.70;;;;;;5033510;28;20374;-35
2021/05/04 12:49:16;;;;;;;6.45;2.25;;;21.40;40.80;;;;;;5032507;28;20035;-35
2021/05/04 12:51:50;;;;;;;4.72;1.83;;;21.30;40.90;;;;;;5031981;28;20025;-35
2021/05/04 12:54:18;;;;;;;6.10;1.80;;;21.40;40.90;;;;;;5032996;28;20030;-35
2021/05/04 12:56:49;;;;;;;4.72;1.50;;;21.30;40.90;;;;;;5033139;28;20029;-35
2021/05/04 12:59:16;;;;;;;5.38;1.42;;;21.30;40.90;;;;;;5032235;28;20053;-36